IGS weather

Ingolstadt Manching Airport
Manching, Bavaria, Germany

Public forecast

Using degrees Celsius for public forecast. Weather courtesy of forecast.io.

METAR (pilot weather report)

Retrieved 2019/03/26 17:20 UTC (38 minutes ago):

ETSI 261720Z 34006KT 9999 BKN050 SCT250 07/M03 Q1028 BLU

TAF (pilot weather forecast)

Forecast is more than 12 hours old.

Retrieved 2015/01/09 12:33 UTC (4 years ago):

TAF ETSI 091115Z 0912/0924 24015G25KT 9999 NSW FEW020 SCT050 BKN090 BECMG 0912/0914 24020G35KT 9999 -RA FEW020 BKN040 BKN080 TEMPO 0915/0924 26025G45KT 8000 RA FEW012 BKN020 OVC050